createdAt,value
2022-10-17T00:13:06.363Z,0.05
2022-10-17T00:43:08.298Z,0.17
2022-10-17T01:13:15.000Z,0.19
2022-10-17T01:43:17.270Z,0.21
2022-10-17T02:13:20.000Z,0.19
2022-10-17T02:43:21.389Z,0.15
2022-10-17T03:13:26.000Z,0.09
2022-10-17T03:43:27.286Z,0.24
2022-10-17T04:13:28.379Z,0.2
2022-10-17T04:43:29.334Z,0.28
2022-10-17T05:13:38.507Z,0.24
2022-10-17T05:43:42.434Z,0.3
2022-10-17T06:13:49.682Z,0.11
2022-10-17T06:43:49.746Z,0.4
2022-10-17T07:13:50.726Z,0.44
2022-10-17T07:44:01.731Z,0.45
2022-10-17T08:14:11.000Z,0.35
2022-10-17T08:44:13.781Z,0.19
2022-10-17T09:14:22.000Z,0.26
2022-10-17T09:44:25.000Z,0.36
2022-10-17T10:14:28.000Z,0.26
2022-10-17T10:44:31.000Z,0.38
2022-10-17T11:14:32.000Z,0.42
2022-10-17T11:44:33.000Z,1.32
2022-10-17T12:14:41.596Z,0.82
2022-10-17T12:44:44.681Z,0.67
2022-10-17T13:14:53.639Z,0.31
2022-10-17T13:45:01.679Z,0.56
2022-10-17T14:15:01.782Z,1
2022-10-17T14:45:03.758Z,0.57
2022-10-17T15:15:05.954Z,0.57
2022-10-17T15:45:15.794Z,0.35
2022-10-17T16:15:15.823Z,0.14
2022-10-17T16:45:22.910Z,0.07
2022-10-17T17:15:25.904Z,0.16
2022-10-17T17:45:26.953Z,0.11
2022-10-17T18:15:36.197Z,0.26
2022-10-17T18:45:39.225Z,0.11
2022-10-17T19:15:40.189Z,0.11
2022-10-17T19:45:44.190Z,0.2
2022-10-17T20:15:54.254Z,0.03
2022-10-17T20:45:56.245Z,0.05
2022-10-17T21:15:58.246Z,0.14
2022-10-17T21:46:09.260Z,0.21
2022-10-17T22:16:10.285Z,0.12
2022-10-17T22:46:20.303Z,0.21
2022-10-17T23:16:23.282Z,0.05
2022-10-17T23:46:32.288Z,0.12
